Time;durP1;ratioP1;P1;durP2;ratioP2;P2;SDS_P1;SDS_P2;PMS_P1;PMS_P2;Temp;Humidity;BMP_temperature;BMP_pressure;BME280_temperature;BME280_humidity;BME280_pressure;Samples;Min_cycle;Max_cycle;Signal;HPM_P1;HPM_P2
2023/05/14 00:00:11;;;;;;;;;;;;;;;18.23;nan;102189.66;5020075;28;19936;-85
2023/05/14 00:02:37;;;;;;;;;;;;;;;18.23;nan;102192.38;5021589;28;19921;-84
2023/05/14 00:05:02;;;;;;;;;;;;;;;18.19;nan;102199.41;5022663;28;20032;-84
2023/05/14 00:07:29;;;;;;;;;;;;;;;18.11;nan;102194.47;5022066;28;19917;-84
2023/05/14 00:09:55;;;;;;;;;;;;;;;18.04;nan;102188.50;5024402;28;20360;-85
2023/05/14 00:12:21;;;;;;;;;;;;;;;17.97;nan;102188.72;5024341;28;19917;-85
2023/05/14 00:14:46;;;;;;;;;;;;;;;17.90;nan;102180.00;5023320;28;19928;-85
2023/05/14 00:17:11;;;;;;;;;;;;;;;17.85;nan;102181.88;5021367;28;20019;-85
2023/05/14 00:19:40;;;;;;;;;;;;;;;17.83;nan;102184.03;5018484;28;20376;-85
2023/05/14 00:22:06;;;;;;;;;;;;;;;17.81;nan;102189.72;5021346;28;19962;-85
2023/05/14 00:24:31;;;;;;;;;;;;;;;17.77;nan;102173.16;5023405;28;20375;-85
2023/05/14 00:26:56;;;;;;;;;;;;;;;17.71;nan;102174.19;5024630;28;20412;-84
2023/05/14 00:29:21;;;;;;;;;;;;;;;17.62;nan;102174.91;5023043;28;19927;-85
2023/05/14 00:31:47;;;;;;;;;;;;;;;17.53;nan;102175.38;5017340;28;19917;-84
2023/05/14 00:34:12;;;;;;;;;;;;;;;17.48;nan;102179.97;5023434;28;20483;-85
2023/05/14 00:36:37;;;;;;;;;;;;;;;17.41;nan;102173.94;5022568;28;20537;-85
2023/05/14 00:39:03;;;;;;;;;;;;;;;17.37;nan;102175.53;5021151;28;20300;-85
2023/05/14 00:41:28;;;;;;;;;;;;;;;17.29;nan;102171.41;5018029;28;20242;-85
2023/05/14 00:43:53;;;;;;;;;;;;;;;17.25;nan;102169.50;5023852;28;19917;-86
2023/05/14 00:46:19;;;;;;;;;;;;;;;17.20;nan;102168.34;5022806;28;19925;-85
2023/05/14 00:48:45;;;;;;;;;;;;;;;17.20;nan;102173.75;5023707;28;19917;-85
2023/05/14 00:51:10;;;;;;;;;;;;;;;17.19;nan;102172.13;5021998;28;20274;-84
2023/05/14 00:53:35;;;;;;;;;;;;;;;17.17;nan;102174.28;5023675;28;19921;-85
2023/05/14 00:56:01;;;;;;;;;;;;;;;17.12;nan;102165.31;5019486;28;19939;-85
2023/05/14 00:58:26;;;;;;;;;;;;;;;17.05;nan;102161.97;5021856;28;20439;-85
2023/05/14 01:00:52;;;;;;;;;;;;;;;16.98;nan;102170.31;5023230;28;19925;-85
2023/05/14 01:03:17;;;;;;;;;;;;;;;16.97;nan;102163.28;5022659;28;19936;-84
2023/05/14 01:06:01;;;;;;;;;;;;;;;16.95;nan;102159.19;5018104;28;19924;-84
2023/05/14 01:08:35;;;;;;;;;;;;;;;16.86;nan;102156.94;5022578;28;21300;-85
2023/05/14 01:11:21;;;;;;;;;;;;;;;16.81;nan;102159.59;5017919;28;20384;-85
2023/05/14 01:14:01;;;;;;;;;;;;;;;16.77;nan;102168.47;5023315;28;19971;-85
2023/05/14 01:16:28;;;;;;;;;;;;;;;16.77;nan;102163.06;5022588;28;19917;-85
2023/05/14 01:18:55;;;;;;;;;;;;;;;16.76;nan;102166.84;5021418;28;19927;-85
2023/05/14 01:21:24;;;;;;;;;;;;;;;16.76;nan;102161.44;5018956;28;20497;-85
2023/05/14 01:23:49;;;;;;;;;;;;;;;16.72;nan;102163.03;5023403;28;20059;-85
2023/05/14 01:26:14;;;;;;;;;;;;;;;16.67;nan;102157.53;5019705;28;20352;-85
2023/05/14 01:28:40;;;;;;;;;;;;;;;16.63;nan;102163.44;5023728;28;20347;-85
2023/05/14 01:31:09;;;;;;;;;;;;;;;16.57;nan;102159.03;5019628;28;19963;-85
2023/05/14 01:33:35;;;;;;;;;;;;;;;16.50;nan;102163.81;5021541;28;20380;-84
2023/05/14 01:36:01;;;;;;;;;;;;;;;16.43;nan;102168.63;5024318;28;20117;-85
2023/05/14 01:38:30;;;;;;;;;;;;;;;16.41;nan;102169.94;5017993;28;20356;-85
2023/05/14 01:40:56;;;;;;;;;;;;;;;16.37;nan;102169.63;5021546;28;19921;-85
2023/05/14 01:43:21;;;;;;;;;;;;;;;16.33;nan;102171.19;5020557;28;19924;-85
2023/05/14 01:45:47;;;;;;;;;;;;;;;16.29;nan;102162.75;5021090;28;20011;-85
2023/05/14 01:48:14;;;;;;;;;;;;;;;16.26;nan;102157.03;5021165;28;19924;-85
2023/05/14 01:50:39;;;;;;;;;;;;;;;16.26;nan;102151.63;5021033;28;19932;-85
2023/05/14 01:53:05;;;;;;;;;;;;;;;16.28;nan;102152.19;5021584;28;19921;-85
2023/05/14 01:55:30;;;;;;;;;;;;;;;16.27;nan;102154.09;5016968;28;19928;-84
2023/05/14 01:57:55;;;;;;;;;;;;;;;16.24;nan;102149.19;5014841;28;20023;-85
2023/05/14 02:00:22;;;;;;;;;;;;;;;16.22;nan;102150.50;5016581;28;20068;-85
2023/05/14 02:02:47;;;;;;;;;;;;;;;16.15;nan;102153.38;5018018;28;19921;-85
2023/05/14 02:05:13;;;;;;;;;;;;;;;16.12;nan;102147.66;5016032;28;19925;-84
2023/05/14 02:07:38;;;;;;;;;;;;;;;16.10;nan;102141.69;5020303;28;20058;-85
2023/05/14 02:10:04;;;;;;;;;;;;;;;16.08;nan;102136.53;5020473;28;19917;-84
2023/05/14 02:12:29;;;;;;;;;;;;;;;16.07;nan;102140.31;5021890;28;19921;-83
2023/05/14 02:14:54;;;;;;;;;;;;;;;16.02;nan;102137.56;5023089;28;19917;-85
2023/05/14 02:17:20;;;;;;;;;;;;;;;15.98;nan;102137.25;5014195;28;19959;-85
2023/05/14 02:19:45;;;;;;;;;;;;;;;15.99;nan;102129.94;5018315;28;20060;-84
2023/05/14 02:22:11;;;;;;;;;;;;;;;16.02;nan;102126.75;5018886;28;19921;-84
2023/05/14 02:24:36;;;;;;;;;;;;;;;16.01;nan;102136.75;5019343;28;19932;-85
2023/05/14 02:27:01;;;;;;;;;;;;;;;16.01;nan;102138.63;5019554;28;19932;-84
2023/05/14 02:29:27;;;;;;;;;;;;;;;15.91;nan;102130.38;5018993;28;19925;-84
2023/05/14 02:31:52;;;;;;;;;;;;;;;15.84;nan;102127.03;5017651;28;20044;-84
2023/05/14 02:34:17;;;;;;;;;;;;;;;15.79;nan;102125.06;5019846;28;19921;-84
2023/05/14 02:36:43;;;;;;;;;;;;;;;15.79;nan;102126.94;5018682;28;19929;-84
2023/05/14 02:39:08;;;;;;;;;;;;;;;15.80;nan;102115.91;5022540;28;20332;-84
2023/05/14 02:41:33;;;;;;;;;;;;;;;15.86;nan;102123.00;5015002;28;20301;-85
2023/05/14 02:43:59;;;;;;;;;;;;;;;15.86;nan;102123.00;5020696;28;20305;-85
2023/05/14 02:46:24;;;;;;;;;;;;;;;15.88;nan;102120.88;5017669;28;19963;-84
2023/05/14 02:48:50;;;;;;;;;;;;;;;15.86;nan;102125.72;5022438;28;20369;-85
2023/05/14 02:51:15;;;;;;;;;;;;;;;15.80;nan;102113.22;5022591;28;20092;-85
2023/05/14 02:53:41;;;;;;;;;;;;;;;15.79;nan;102124.25;5025134;28;20307;-85
2023/05/14 02:56:06;;;;;;;;;;;;;;;15.79;nan;102114.25;5024325;28;19956;-84
2023/05/14 02:58:32;;;;;;;;;;;;;;;15.80;nan;102112.38;5015764;28;19917;-84
2023/05/14 03:00:57;;;;;;;;;;;;;;;15.85;nan;102123.25;5016795;28;20055;-85
2023/05/14 03:03:23;;;;;;;;;;;;;;;15.92;nan;102118.47;5032225;28;19921;-84
2023/05/14 03:05:48;;;;;;;;;;;;;;;15.93;nan;102115.53;5013053;28;19929;-85
2023/05/14 03:08:13;;;;;;;;;;;;;;;15.92;nan;102124.72;5012559;28;19926;-85
2023/05/14 03:10:39;;;;;;;;;;;;;;;15.94;nan;102122.56;5000971;28;19960;-84
2023/05/14 03:13:04;;;;;;;;;;;;;;;15.94;nan;102122.56;5000804;28;20016;-84
2023/05/14 03:15:30;;;;;;;;;;;;;;;15.98;nan;102129.13;5001751;28;20068;-85
2023/05/14 03:17:55;;;;;;;;;;;;;;;15.98;nan;102129.13;5002785;28;21056;-85
2023/05/14 03:20:23;;;;;;;;;;;;;;;16.01;nan;102125.09;5001943;28;19936;-84
2023/05/14 03:22:48;;;;;;;;;;;;;;;16.03;nan;102122.97;5017300;28;19925;-85
2023/05/14 03:25:13;;;;;;;;;;;;;;;16.05;nan;102120.81;5003640;28;20010;-85
2023/05/14 03:27:39;;;;;;;;;;;;;;;16.05;nan;102123.53;5003984;28;19921;-84
2023/05/14 03:30:05;;;;;;;;;;;;;;;16.05;nan;102122.72;5001786;28;19928;-84
2023/05/14 03:32:30;;;;;;;;;;;;;;;16.05;nan;102122.72;5012019;28;19918;-85
2023/05/14 03:34:55;;;;;;;;;;;;;;;16.08;nan;102122.19;5021833;28;20312;-84
2023/05/14 03:37:21;;;;;;;;;;;;;;;16.11;nan;102121.69;5008172;28;20649;-85
2023/05/14 03:39:46;;;;;;;;;;;;;;;16.12;nan;102123.34;5001239;28;20388;-85
2023/05/14 03:42:11;;;;;;;;;;;;;;;16.14;nan;102127.41;4999916;28;19925;-85
2023/05/14 03:44:37;;;;;;;;;;;;;;;16.19;nan;102129.38;4999045;28;20648;-84
2023/05/14 03:47:02;;;;;;;;;;;;;;;16.24;nan;102132.13;5004000;28;20350;-84
2023/05/14 03:49:27;;;;;;;;;;;;;;;16.30;nan;102128.41;4998652;28;20637;-84
2023/05/14 03:51:53;;;;;;;;;;;;;;;16.35;nan;102124.97;5001538;28;20509;-85
2023/05/14 03:54:18;;;;;;;;;;;;;;;16.41;nan;102122.06;5003199;28;19929;-85
2023/05/14 03:56:43;;;;;;;;;;;;;;;16.49;nan;102124.31;5005464;28;20202;-84
2023/05/14 03:59:09;;;;;;;;;;;;;;;16.56;nan;102127.66;5002395;28;19979;-85
2023/05/14 04:01:34;;;;;;;;;;;;;;;16.57;nan;102120.34;4998080;28;19929;-84
2023/05/14 04:03:59;;;;;;;;;;;;;;;16.57;nan;102128.47;4999510;28;19926;-84
2023/05/14 04:06:25;;;;;;;;;;;;;;;16.62;nan;102128.50;5003826;28;20330;-84
2023/05/14 04:08:50;;;;;;;;;;;;;;;16.72;nan;102127.84;5000741;28;19925;-84
2023/05/14 04:11:15;;;;;;;;;;;;;;;16.81;nan;102123.59;4999747;28;21400;-84
2023/05/14 04:13:41;;;;;;;;;;;;;;;16.87;nan;102126.06;4999769;28;20191;-84
2023/05/14 04:16:06;;;;;;;;;;;;;;;16.96;nan;102121.03;5002523;28;19921;-84
2023/05/14 04:18:34;;;;;;;;;;;;;;;17.04;nan;102128.66;5000834;28;20031;-84
2023/05/14 04:20:59;;;;;;;;;;;;;;;17.10;nan;102116.00;4997932;28;20121;-83
2023/05/14 04:23:25;;;;;;;;;;;;;;;17.18;nan;102110.91;4998477;28;19925;-84
2023/05/14 04:25:50;;;;;;;;;;;;;;;17.28;nan;102117.50;5000806;28;19925;-84
2023/05/14 04:28:15;;;;;;;;;;;;;;;17.37;nan;102116.75;5005561;28;20397;-84
2023/05/14 04:30:41;;;;;;;;;;;;;;;17.49;nan;102111.97;4998379;28;19971;-84
2023/05/14 04:33:06;;;;;;;;;;;;;;;17.62;nan;102099.84;4999995;28;19925;-84
2023/05/14 04:35:31;;;;;;;;;;;;;;;17.76;nan;102106.44;4999146;28;19947;-84
2023/05/14 04:37:57;;;;;;;;;;;;;;;17.91;nan;102107.59;5003726;28;19970;-84
2023/05/14 04:40:22;;;;;;;;;;;;;;;18.06;nan;102110.38;5022237;28;20019;-84
2023/05/14 04:42:47;;;;;;;;;;;;;;;18.19;nan;102115.31;5017696;28;19928;-85
2023/05/14 04:45:13;;;;;;;;;;;;;;;18.32;nan;102109.41;4999132;28;19917;-84
2023/05/14 04:47:38;;;;;;;;;;;;;;;18.46;nan;102096.13;5000385;28;19974;-84
2023/05/14 04:50:05;;;;;;;;;;;;;;;18.55;nan;102099.16;4999098;28;20016;-84
2023/05/14 04:52:30;;;;;;;;;;;;;;;18.61;nan;102098.06;5004087;28;19967;-84
2023/05/14 04:54:56;;;;;;;;;;;;;;;18.69;nan;102100.28;5000222;28;19925;-84
2023/05/14 04:57:21;;;;;;;;;;;;;;;18.81;nan;102105.44;5000168;28;19921;-83
2023/05/14 04:59:46;;;;;;;;;;;;;;;18.91;nan;102095.41;4999303;28;19954;-85
2023/05/14 05:02:12;;;;;;;;;;;;;;;19.05;nan;102094.88;4998973;28;19925;-84
2023/05/14 05:04:37;;;;;;;;;;;;;;;19.16;nan;102096.50;4997727;28;20316;-85
2023/05/14 05:07:04;;;;;;;;;;;;;;;19.22;nan;102093.50;5002630;28;20379;-85
2023/05/14 05:09:29;;;;;;;;;;;;;;;19.33;nan;102088.88;5003530;28;20016;-85
2023/05/14 05:11:55;;;;;;;;;;;;;;;19.40;nan;102091.31;5002480;28;20468;-85
2023/05/14 05:14:20;;;;;;;;;;;;;;;19.48;nan;102094.28;5010720;28;20410;-85
2023/05/14 05:16:46;;;;;;;;;;;;;;;19.59;nan;102097.81;5018857;28;19921;-85
2023/05/14 05:19:11;;;;;;;;;;;;;;;19.68;nan;102098.88;5012149;28;20396;-85
2023/05/14 05:21:39;;;;;;;;;;;;;;;19.82;nan;102091.78;5002955;28;20412;-85
2023/05/14 05:24:04;;;;;;;;;;;;;;;19.97;nan;102085.47;4998933;28;19932;-85
2023/05/14 05:26:30;;;;;;;;;;;;;;;20.10;nan;102089.47;4998270;28;20126;-84
2023/05/14 05:28:55;;;;;;;;;;;;;;;20.23;nan;102084.22;5020571;28;20196;-85
2023/05/14 05:31:21;;;;;;;;;;;;;;;20.38;nan;102082.53;5007906;28;19936;-85
2023/05/14 05:33:46;;;;;;;;;;;;;;;20.50;nan;102078.41;5002818;28;20335;-85
2023/05/14 05:36:11;;;;;;;;;;;;;;;20.64;nan;102078.56;4998331;28;19921;-85
2023/05/14 05:38:37;;;;;;;;;;;;;;;20.74;nan;102083.94;4997697;28;19925;-85
2023/05/14 05:41:02;;;;;;;;;;;;;;;20.88;nan;102078.66;5005113;28;19925;-85
2023/05/14 05:43:27;;;;;;;;;;;;;;;21.01;nan;102077.19;4999848;28;19924;-85
2023/05/14 05:45:53;;;;;;;;;;;;;;;21.17;nan;102083.28;4997852;28;19925;-86
2023/05/14 05:48:18;;;;;;;;;;;;;;;21.31;nan;102076.91;4999709;28;19925;-85
2023/05/14 05:50:46;;;;;;;;;;;;;;;21.46;nan;102077.88;5019863;28;19936;-85
2023/05/14 05:53:11;;;;;;;;;;;;;;;21.58;nan;102075.56;4999025;28;20101;-86
2023/05/14 05:55:37;;;;;;;;;;;;;;;21.69;nan;102077.88;4995195;28;19983;-85
2023/05/14 05:58:02;;;;;;;;;;;;;;;21.83;nan;102077.97;4999925;28;19924;-86
2023/05/14 06:00:27;;;;;;;;;;;;;;;21.92;nan;102062.59;5011155;28;19928;-85
2023/05/14 06:02:52;;;;;;;;;;;;;;;22.05;nan;102058.34;5004125;28;20460;-85
2023/05/14 06:05:18;;;;;;;;;;;;;;;22.19;nan;102059.25;4996158;28;20422;-86
2023/05/14 06:07:43;;;;;;;;;;;;;;;22.38;nan;102066.63;4996846;28;20293;-85
2023/05/14 06:10:09;;;;;;;;;;;;;;;22.54;nan;102059.84;4998625;28;19936;-85
2023/05/14 06:12:34;;;;;;;;;;;;;;;22.70;nan;102071.34;5001301;28;20358;-84
2023/05/14 06:14:59;;;;;;;;;;;;;;;22.86;nan;102061.81;4996633;28;19929;-85
2023/05/14 06:17:25;;;;;;;;;;;;;;;23.04;nan;102058.22;4999357;28;20388;-85
2023/05/14 06:19:51;;;;;;;;;;;;;;;23.21;nan;102068.59;4998488;28;20537;-85
2023/05/14 06:22:16;;;;;;;;;;;;;;;23.39;nan;102064.16;4995636;28;19945;-85
2023/05/14 06:24:42;;;;;;;;;;;;;;;23.52;nan;102058.69;4997100;28;19926;-85
2023/05/14 06:27:07;;;;;;;;;;;;;;;23.70;nan;102059.75;4997620;28;20150;-84
2023/05/14 06:29:32;;;;;;;;;;;;;;;23.87;nan;102063.75;5000449;28;19922;-85
2023/05/14 06:32:01;;;;;;;;;;;;;;;23.96;nan;102056.44;5020346;28;19917;-84
2023/05/14 06:34:27;;;;;;;;;;;;;;;24.05;nan;102057.34;5012972;28;20007;-85
2023/05/14 06:36:52;;;;;;;;;;;;;;;24.09;nan;102053.69;5015048;28;20174;-85
2023/05/14 06:39:17;;;;;;;;;;;;;;;24.20;nan;102059.75;4997562;28;20614;-85
2023/05/14 06:41:43;;;;;;;;;;;;;;;24.35;nan;102059.44;5004071;28;19929;-85
2023/05/14 06:44:08;;;;;;;;;;;;;;;24.53;nan;102065.03;4995005;28;20083;-85
2023/05/14 06:46:33;;;;;;;;;;;;;;;24.67;nan;102069.34;4999946;28;19928;-85
2023/05/14 06:48:59;;;;;;;;;;;;;;;24.68;nan;102065.50;4995561;28;19932;-85
2023/05/14 06:51:24;;;;;;;;;;;;;;;24.72;nan;102062.94;4999232;28;19925;-84
2023/05/14 06:53:51;;;;;;;;;;;;;;;24.79;nan;102068.00;4996536;28;19925;-85
2023/05/14 06:56:16;;;;;;;;;;;;;;;24.92;nan;102064.34;4997748;28;19944;-85
2023/05/14 06:58:41;;;;;;;;;;;;;;;25.06;nan;102064.31;4996233;28;20432;-85
2023/05/14 07:01:07;;;;;;;;;;;;;;;25.15;nan;102063.25;5003851;28;19929;-85
2023/05/14 07:03:32;;;;;;;;;;;;;;;25.19;nan;102063.41;4993625;28;19925;-85
2023/05/14 07:05:57;;;;;;;;;;;;;;;25.27;nan;102057.16;4993443;28;19999;-85
2023/05/14 07:08:23;;;;;;;;;;;;;;;25.36;nan;102055.28;5015707;28;20318;-85
2023/05/14 07:10:48;;;;;;;;;;;;;;;25.48;nan;102047.22;5005533;28;20016;-84
2023/05/14 07:13:13;;;;;;;;;;;;;;;25.61;nan;102042.75;4995004;28;20618;-84
2023/05/14 07:15:39;;;;;;;;;;;;;;;25.75;nan;102039.91;4995815;28;19925;-85
2023/05/14 07:18:04;;;;;;;;;;;;;;;25.87;nan;102032.69;4998004;28;19925;-85
2023/05/14 07:20:29;;;;;;;;;;;;;;;25.96;nan;102040.13;4996211;28;19929;-85
2023/05/14 07:22:55;;;;;;;;;;;;;;;26.14;nan;102034.31;5014845;28;19990;-85
2023/05/14 07:25:20;;;;;;;;;;;;;;;26.31;nan;102032.72;5016727;28;19917;-85
2023/05/14 07:27:45;;;;;;;;;;;;;;;26.36;nan;102025.13;5013834;28;19921;-85
2023/05/14 07:30:11;;;;;;;;;;;;;;;26.46;nan;102024.81;5015819;28;19933;-85
2023/05/14 07:32:36;;;;;;;;;;;;;;;26.60;nan;102023.84;5001592;28;19929;-85
2023/05/14 07:35:01;;;;;;;;;;;;;;;26.69;nan;102017.16;5000081;28;19921;-85
2023/05/14 07:37:27;;;;;;;;;;;;;;;26.83;nan;102024.41;5007780;28;19929;-85
2023/05/14 07:39:52;;;;;;;;;;;;;;;26.91;nan;102018.06;5026871;28;19917;-85
2023/05/14 07:42:18;;;;;;;;;;;;;;;27.05;nan;102015.97;5025839;28;20111;-86
2023/05/14 07:44:43;;;;;;;;;;;;;;;27.24;nan;102019.13;5021549;28;19951;-85
2023/05/14 07:47:09;;;;;;;;;;;;;;;27.42;nan;102024.53;5026971;28;19950;-85
2023/05/14 07:49:34;;;;;;;;;;;;;;;27.54;nan;102008.13;5022681;28;19972;-85
2023/05/14 07:52:00;;;;;;;;;;;;;;;27.71;nan;102010.00;5024103;28;19968;-85
2023/05/14 07:54:25;;;;;;;;;;;;;;;27.91;nan;102018.28;5019558;28;19917;-85
2023/05/14 07:56:51;;;;;;;;;;;;;;;28.01;nan;102017.09;5021711;28;19917;-85
2023/05/14 07:59:16;;;;;;;;;;;;;;;28.03;nan;102016.75;5023666;28;20025;-84
2023/05/14 08:01:41;;;;;;;;;;;;;;;28.10;nan;102006.78;5014724;28;21669;-85
2023/05/14 08:04:07;;;;;;;;;;;;;;;28.26;nan;102012.53;5003731;28;21271;-84
2023/05/14 08:06:32;;;;;;;;;;;;;;;28.34;nan;102006.13;5011763;28;19956;-84
2023/05/14 08:08:58;;;;;;;;;;;;;;;28.51;nan;102003.19;5020432;28;19968;-85
2023/05/14 08:11:23;;;;;;;;;;;;;;;28.70;nan;102008.19;5022207;28;20406;-85
2023/05/14 08:13:48;;;;;;;;;;;;;;;28.73;nan;102006.72;5020449;28;19928;-85
2023/05/14 08:16:14;;;;;;;;;;;;;;;28.67;nan;102003.38;5023053;28;19917;-86
2023/05/14 08:18:39;;;;;;;;;;;;;;;28.48;nan;102012.16;5025072;28;19975;-85
2023/05/14 08:21:05;;;;;;;;;;;;;;;28.38;nan;102009.03;5021199;28;19921;-86
2023/05/14 08:23:30;;;;;;;;;;;;;;;28.18;nan;102008.66;5021208;28;20270;-86
2023/05/14 08:25:55;;;;;;;;;;;;;;;28.03;nan;102022.25;5026161;28;19924;-87
2023/05/14 08:28:21;;;;;;;;;;;;;;;27.94;nan;102014.84;5020484;28;19921;-88
2023/05/14 08:30:46;;;;;;;;;;;;;;;27.80;nan;102013.50;5014322;28;19921;-87
2023/05/14 08:33:12;;;;;;;;;;;;;;;27.77;nan;102006.72;5019257;28;19926;-88
2023/05/14 08:35:37;;;;;;;;;;;;;;;27.81;nan;102006.84;5018978;28;19960;-86
2023/05/14 08:38:02;;;;;;;;;;;;;;;27.84;nan;102008.97;5004615;28;19925;-87
2023/05/14 08:40:28;;;;;;;;;;;;;;;27.91;nan;101999.00;5016152;28;19944;-88
2023/05/14 08:42:55;;;;;;;;;;;;;;;27.99;nan;102009.13;5020360;28;20389;-87
2023/05/14 08:45:24;;;;;;;;;;;;;;;28.04;nan;102012.84;5021980;28;19924;-86
2023/05/14 08:47:50;;;;;;;;;;;;;;;28.05;nan;102008.97;5022491;28;20311;-86
2023/05/14 08:50:16;;;;;;;;;;;;;;;28.09;nan;102004.38;5020131;28;19921;-85
2023/05/14 08:52:41;;;;;;;;;;;;;;;28.18;nan;101999.59;5018021;28;19928;-85
2023/05/14 08:55:07;;;;;;;;;;;;;;;28.31;nan;101998.53;5021570;28;20060;-86
2023/05/14 08:57:33;;;;;;;;;;;;;;;28.45;nan;101990.78;5020994;28;19928;-85
2023/05/14 08:59:58;;;;;;;;;;;;;;;28.61;nan;101998.41;5020034;28;19929;-84
2023/05/14 09:02:26;;;;;;;;;;;;;;;28.76;nan;101987.53;5019172;28;19925;-85
2023/05/14 09:04:54;;;;;;;;;;;;;;;28.93;nan;101983.81;5021227;28;19921;-85
2023/05/14 09:07:19;;;;;;;;;;;;;;;29.09;nan;101983.94;5019063;28;20388;-84
2023/05/14 09:09:45;;;;;;;;;;;;;;;29.24;nan;101976.91;5017164;28;19929;-84
2023/05/14 09:12:11;;;;;;;;;;;;;;;29.33;nan;101985.88;5018507;28;20575;-84
2023/05/14 09:14:36;;;;;;;;;;;;;;;29.40;nan;101980.59;5016860;28;20274;-84
2023/05/14 09:17:02;;;;;;;;;;;;;;;29.53;nan;101978.66;5020136;28;19929;-84
2023/05/14 09:19:27;;;;;;;;;;;;;;;29.70;nan;101968.16;5020031;28;20312;-84
2023/05/14 09:21:56;;;;;;;;;;;;;;;29.96;nan;101966.91;5019761;28;19929;-84
2023/05/14 09:24:22;;;;;;;;;;;;;;;30.15;nan;101953.28;5017355;28;19924;-84
2023/05/14 09:26:55;;;;;;;;;;;;;;;30.32;nan;101955.72;5014337;28;19932;-84
2023/05/14 09:29:20;;;;;;;;;;;;;;;30.44;nan;101951.28;5009414;28;19929;-82
2023/05/14 09:31:48;;;;;;;;;;;;;;;30.55;nan;101944.09;5009520;28;19936;-84
2023/05/14 09:34:22;;;;;;;;;;;;;;;30.57;nan;101937.03;5002247;28;19925;-83
2023/05/14 09:36:48;;;;;;;;;;;;;;;30.68;nan;101940.09;5023593;28;19924;-83
2023/05/14 09:39:13;;;;;;;;;;;;;;;30.89;nan;101942.63;5004402;28;19925;-83
2023/05/14 09:41:38;;;;;;;;;;;;;;;31.03;nan;101940.16;5006184;28;20337;-83
2023/05/14 09:44:04;;;;;;;;;;;;;;;31.11;nan;101930.09;5007318;28;20388;-83
2023/05/14 09:46:30;;;;;;;;;;;;;;;31.23;nan;101938.28;5007557;28;20372;-84
2023/05/14 09:48:56;;;;;;;;;;;;;;;31.32;nan;101929.81;5002116;28;20032;-83
2023/05/14 09:51:21;;;;;;;;;;;;;;;31.43;nan;101919.78;5006284;28;19928;-83
2023/05/14 09:53:47;;;;;;;;;;;;;;;31.55;nan;101917.66;5012260;28;19969;-84
2023/05/14 09:56:12;;;;;;;;;;;;;;;31.67;nan;101918.69;5020386;28;20335;-82
2023/05/14 09:58:37;;;;;;;;;;;;;;;31.77;nan;101907.84;5011711;28;19957;-80
2023/05/14 10:01:03;;;;;;;;;;;;;;;31.85;nan;101900.50;5017728;28;19929;-79
2023/05/14 10:03:29;;;;;;;;;;;;;;;31.91;nan;101895.47;5001583;28;20404;-84
2023/05/14 10:05:57;;;;;;;;;;;;;;;32.00;nan;101896.84;5015796;28;19947;-82
2023/05/14 10:08:35;;;;;;;;;;;;;;;32.09;nan;101897.41;5003421;28;19964;-84
2023/05/14 10:11:19;;;;;;;;;;;;;;;32.13;nan;101892.72;5015567;28;19932;-84
2023/05/14 10:13:52;;;;;;;;;;;;;;;32.19;nan;101878.56;5008305;28;19929;-82
2023/05/14 10:16:27;;;;;;;;;;;;;;;32.33;nan;101876.88;5006804;28;19925;-83
2023/05/14 10:18:55;;;;;;;;;;;;;;;32.49;nan;101873.16;5009264;28;19922;-80
2023/05/14 10:21:21;;;;;;;;;;;;;;;32.68;nan;101873.91;5017423;28;20488;-83
2023/05/14 10:23:47;;;;;;;;;;;;;;;32.83;nan;101876.91;5019742;28;20791;-82
2023/05/14 10:26:13;;;;;;;;;;;;;;;32.85;nan;101871.78;5013980;28;19921;-85
2023/05/14 10:28:39;;;;;;;;;;;;;;;32.90;nan;101868.72;5011103;28;19917;-84
2023/05/14 10:31:04;;;;;;;;;;;;;;;32.98;nan;101871.22;5011380;28;20796;-84
2023/05/14 10:33:29;;;;;;;;;;;;;;;33.05;nan;101863.00;5012914;28;20688;-83
2023/05/14 10:36:05;;;;;;;;;;;;;;;33.17;nan;101864.72;5019745;28;19917;-82
2023/05/14 10:38:35;;;;;;;;;;;;;;;33.31;nan;101844.69;5011727;28;20294;-84
2023/05/14 10:41:04;;;;;;;;;;;;;;;33.40;nan;101841.66;5011813;28;19929;-80
2023/05/14 10:43:35;;;;;;;;;;;;;;;33.53;nan;101840.22;5016665;28;19921;-80
2023/05/14 10:46:00;;;;;;;;;;;;;;;33.67;nan;101832.03;5013503;28;19925;-82
2023/05/14 10:48:25;;;;;;;;;;;;;;;33.72;nan;101837.25;5015597;28;19917;-83
2023/05/14 10:50:51;;;;;;;;;;;;;;;33.77;nan;101817.47;5011047;28;19931;-83
2023/05/14 10:53:17;;;;;;;;;;;;;;;33.73;nan;101829.72;5007412;28;19921;-85
2023/05/14 10:55:42;;;;;;;;;;;;;;;33.64;nan;101830.03;5010087;28;20415;-83
2023/05/14 10:58:09;;;;;;;;;;;;;;;33.48;nan;101824.69;5009736;28;20266;-84
2023/05/14 11:00:34;;;;;;;;;;;;;;;33.30;nan;101820.88;5002191;28;20499;-83
2023/05/14 11:03:02;;;;;;;;;;;;;;;33.05;nan;101818.56;5005776;28;19990;-84
2023/05/14 11:05:28;;;;;;;;;;;;;;;32.78;nan;101821.69;5005828;28;20116;-85
2023/05/14 11:07:55;;;;;;;;;;;;;;;32.58;nan;101819.03;5008443;28;19921;-85
2023/05/14 11:10:21;;;;;;;;;;;;;;;32.39;nan;101817.16;5009388;28;20732;-84
2023/05/14 11:12:47;;;;;;;;;;;;;;;32.24;nan;101814.47;5013957;28;19925;-85
2023/05/14 11:15:19;;;;;;;;;;;;;;;32.05;nan;101802.28;5011362;28;19921;-84
2023/05/14 11:17:45;;;;;;;;;;;;;;;31.97;nan;101802.53;5008313;28;19921;-84
2023/05/14 11:20:10;;;;;;;;;;;;;;;31.94;nan;101814.34;5020247;28;19928;-83
2023/05/14 11:22:37;;;;;;;;;;;;;;;31.85;nan;101809.06;5022721;28;20288;-78
2023/05/14 11:25:03;;;;;;;;;;;;;;;31.76;nan;101809.28;5023149;28;19939;-83
2023/05/14 11:27:28;;;;;;;;;;;;;;;31.69;nan;101806.34;5023822;28;19917;-84
2023/05/14 11:29:54;;;;;;;;;;;;;;;31.66;nan;101807.09;5023789;28;20766;-83
2023/05/14 11:32:20;;;;;;;;;;;;;;;31.56;nan;101805.69;5019715;28;19925;-84
2023/05/14 11:34:45;;;;;;;;;;;;;;;31.46;nan;101800.75;5019661;28;19921;-84
2023/05/14 11:37:12;;;;;;;;;;;;;;;31.32;nan;101794.13;5025634;28;20488;-84
2023/05/14 11:39:37;;;;;;;;;;;;;;;31.24;nan;101795.97;5018972;28;20068;-84
2023/05/14 11:42:04;;;;;;;;;;;;;;;31.15;nan;101790.59;5013292;28;20393;-84
2023/05/14 11:44:30;;;;;;;;;;;;;;;31.15;nan;101792.56;5004854;28;20835;-82
2023/05/14 11:46:56;;;;;;;;;;;;;;;31.15;nan;101792.56;5006158;28;19920;-82
2023/05/14 11:49:22;;;;;;;;;;;;;;;31.16;nan;101788.63;5008359;28;20702;-84
2023/05/14 11:51:48;;;;;;;;;;;;;;;31.17;nan;101791.06;5010006;28;19925;-84
2023/05/14 11:54:13;;;;;;;;;;;;;;;31.16;nan;101789.44;5009870;28;19925;-84
2023/05/14 11:56:38;;;;;;;;;;;;;;;31.15;nan;101782.28;5007193;28;20392;-82
2023/05/14 11:59:04;;;;;;;;;;;;;;;31.14;nan;101777.13;5014955;28;19921;-84
2023/05/14 12:01:34;;;;;;;;;;;;;;;31.14;nan;101782.66;5013199;28;19952;-84
2023/05/14 12:03:59;;;;;;;;;;;;;;;31.05;nan;101782.06;5008540;28;19925;-81
2023/05/14 12:06:29;;;;;;;;;;;;;;;31.05;nan;101776.50;5013913;28;19999;-80
2023/05/14 12:08:54;;;;;;;;;;;;;;;31.10;nan;101779.03;5008187;28;19936;-84
2023/05/14 12:11:20;;;;;;;;;;;;;;;31.32;nan;101770.00;5011825;28;19926;-83
2023/05/14 12:13:46;;;;;;;;;;;;;;;31.62;nan;101772.19;5010361;28;19926;-84
2023/05/14 12:16:11;;;;;;;;;;;;;;;31.77;nan;101762.97;5008506;28;19968;-80
2023/05/14 12:18:36;;;;;;;;;;;;;;;31.96;nan;101765.72;5010030;28;20451;-83
2023/05/14 12:21:03;;;;;;;;;;;;;;;32.10;nan;101754.84;5004608;28;19980;-85
2023/05/14 12:23:29;;;;;;;;;;;;;;;32.20;nan;101760.94;5033468;28;20249;-85
2023/05/14 12:25:54;;;;;;;;;;;;;;;32.16;nan;101753.38;5021954;28;20440;-84
2023/05/14 12:28:22;;;;;;;;;;;;;;;32.10;nan;101760.38;5022415;28;19941;-85
2023/05/14 12:30:48;;;;;;;;;;;;;;;31.94;nan;101754.16;5013595;28;20351;-85
2023/05/14 12:33:13;;;;;;;;;;;;;;;31.87;nan;101754.06;5023300;28;20019;-86
2023/05/14 12:35:39;;;;;;;;;;;;;;;31.78;nan;101747.97;5012152;28;19925;-86
2023/05/14 12:38:05;;;;;;;;;;;;;;;31.65;nan;101740.97;5018731;28;19925;-86
2023/05/14 12:40:30;;;;;;;;;;;;;;;31.55;nan;101742.34;5025234;28;19932;-84
2023/05/14 12:42:55;;;;;;;;;;;;;;;31.42;nan;101735.38;5017710;28;20500;-83
2023/05/14 12:45:21;;;;;;;;;;;;;;;31.21;nan;101738.53;5010201;28;20833;-85
2023/05/14 12:47:46;;;;;;;;;;;;;;;31.13;nan;101728.47;5002592;28;20933;-84
2023/05/14 12:50:11;;;;;;;;;;;;;;;31.15;nan;101737.19;5010448;28;21327;-84